First Clarity — A8RM8 — position and weather

sailwx.info

Track history (hours):
 
Tides and Currents Weather Stations Pressure Air Temp Water Temp Dewpoint Dewpoint Depression Visibility Wind Speed Wind Dir Waves Ship Positions

First Clarity

Last reported at 2014-Dec-18 07:27 UTC. Time now 2014-Dec-23 04:25 UTC.
Position N 34°01' E 130°51'.

Length 104 m; draft 5.6 m.

Type: Ship. MMSI: 636014129.

Date/timePositionNaut miles runAvg speedWind from/ knotsBaromVisibWave heightAir tempDewpointWater temp
2014-Dec-18 07:27N 34°01' E 130°51'204 7.2
2014-Dec-17 03:07N 34°36' E 134°54'2 3.7
2014-Dec-17 02:33N 34°37' E 134°56'5 4.5
2014-Dec-17 01:33N 34°37' E 135°02'6 6.3
2014-Dec-17 00:33N 34°31' E 135°04'10 9.8
2014-Dec-16 23:30N 34°21' E 135°01'9 9.7
2014-Dec-16 22:33N 34°12' E 134°59'9 8.6
2014-Dec-16 21:34N 34°03' E 134°59'9 8.6
2014-Dec-16 20:32N 33°55' E 134°59'247 7.5
2014-Dec-15 11:32N 35°09' E 139°45'10 9.9
2014-Dec-15 10:33N 35°19' E 139°43'7 6.6
2014-Dec-15 09:33N 35°24' E 139°38'0 0.0
2014-Dec-15 08:33N 35°24' E 139°38'0 0.0
2014-Dec-15 07:33N 35°24' E 139°38'0 0.0
2014-Dec-15 06:33N 35°24' E 139°38'0 0.0
2014-Dec-15 05:33N 35°24' E 139°38'0 0.0
2014-Dec-15 04:33N 35°24' E 139°38'0 0.0
2014-Dec-15 03:33N 35°24' E 139°38'0 0.0
2014-Dec-15 02:33N 35°24' E 139°38'0 0.0
2014-Dec-15 01:33N 35°24' E 139°38'0 0.0
2014-Dec-15 00:33N 35°24' E 139°38'0 0.0
2014-Dec-14 23:33N 35°24' E 139°38'0 0.1
2014-Dec-14 22:33N 35°25' E 139°38'2 1.5
2014-Dec-14 21:33N 35°23' E 139°40'0 0.1
2014-Dec-14 20:33N 35°23' E 139°40'0 0.0
2014-Dec-14 19:33N 35°23' E 139°40'0 0.1
2014-Dec-14 18:33N 35°23' E 139°40'0 0.0
2014-Dec-14 17:33N 35°23' E 139°40'0 0.1
2014-Dec-14 16:33N 35°23' E 139°40'0 0.0
2014-Dec-14 15:33N 35°23' E 139°40'0 0.0
2014-Dec-14 14:33N 35°23' E 139°40'0 0.0
2014-Dec-14 13:33N 35°23' E 139°40'0 0.0
2014-Dec-14 12:33N 35°23' E 139°40'0 0.0
2014-Dec-14 11:33N 35°23' E 139°40'0 0.1
2014-Dec-14 10:33N 35°23' E 139°40'0 0.0
2014-Dec-14 09:33N 35°23' E 139°40'0 0.0
2014-Dec-14 08:33N 35°23' E 139°40'0 0.0
2014-Dec-14 07:33N 35°23' E 139°40'0 0.0
2014-Dec-14 06:33N 35°23' E 139°40'0 0.0
2014-Dec-14 05:33N 35°23' E 139°40'0 0.0
2014-Dec-14 04:33N 35°23' E 139°40'0 0.0
2014-Dec-14 03:33N 35°23' E 139°40'0 0.0
2014-Dec-14 02:33N 35°23' E 139°40'0 0.0
2014-Dec-14 01:33N 35°23' E 139°40'0 0.0
2014-Dec-14 00:30N 35°23' E 139°40'0 0.1
2014-Dec-13 23:33N 35°23' E 139°40'0 0.1
2014-Dec-13 22:33N 35°23' E 139°40'0 0.0
2014-Dec-13 18:15N 35°23' E 139°40'0 0.3
2014-Dec-13 17:33N 35°23' E 139°40'0 0.2
2014-Dec-13 16:33N 35°23' E 139°40'0 0.1
2014-Dec-13 15:33N 35°23' E 139°40'0 0.0
2014-Dec-13 14:33N 35°23' E 139°40'0 0.0
2014-Dec-13 13:33N 35°23' E 139°40'0 0.0
2014-Dec-13 12:33N 35°23' E 139°40'0 0.0
2014-Dec-13 11:33N 35°23' E 139°40'0 0.1
2014-Dec-13 10:33N 35°24' E 139°40'0 0.3
2014-Dec-13 09:33N 35°23' E 139°40'9 8.8
2014-Dec-13 08:33N 35°16' E 139°46'1210.1
2014-Dec-13 07:25N 35°05' E 139°46'445 9.7
2014-Dec-11 09:31N 34°01' E 130°50'  
Track history (hours):
 
Tides and Currents Weather Stations Pressure Air Temp Water Temp Dewpoint Dewpoint Depression Visibility Wind Speed Wind Dir Waves Ship Positions

First Clarity

Last reported at 2014-Dec-18 07:27 UTC. Time now 2014-Dec-23 04:25 UTC.
Position N 34°01' E 130°51'.

Length 104 m; draft 5.6 m.

Type: Ship. MMSI: 636014129.

Date/timePositionNaut miles runAvg speedWind from/ knotsBaromVisibWave heightAir tempDewpointWater temp
2014-Dec-18 07:27N 34°01' E 130°51'204 7.2
2014-Dec-17 03:07N 34°36' E 134°54'2 3.7
2014-Dec-17 02:33N 34°37' E 134°56'5 4.5
2014-Dec-17 01:33N 34°37' E 135°02'6 6.3
2014-Dec-17 00:33N 34°31' E 135°04'10 9.8
2014-Dec-16 23:30N 34°21' E 135°01'9 9.7
2014-Dec-16 22:33N 34°12' E 134°59'9 8.6
2014-Dec-16 21:34N 34°03' E 134°59'9 8.6
2014-Dec-16 20:32N 33°55' E 134°59'247 7.5
2014-Dec-15 11:32N 35°09' E 139°45'10 9.9
2014-Dec-15 10:33N 35°19' E 139°43'7 6.6
2014-Dec-15 09:33N 35°24' E 139°38'0 0.0
2014-Dec-15 08:33N 35°24' E 139°38'0 0.0
2014-Dec-15 07:33N 35°24' E 139°38'0 0.0
2014-Dec-15 06:33N 35°24' E 139°38'0 0.0
2014-Dec-15 05:33N 35°24' E 139°38'0 0.0
2014-Dec-15 04:33N 35°24' E 139°38'0 0.0
2014-Dec-15 03:33N 35°24' E 139°38'0 0.0
2014-Dec-15 02:33N 35°24' E 139°38'0 0.0
2014-Dec-15 01:33N 35°24' E 139°38'0 0.0
2014-Dec-15 00:33N 35°24' E 139°38'0 0.0
2014-Dec-14 23:33N 35°24' E 139°38'0 0.1
2014-Dec-14 22:33N 35°25' E 139°38'2 1.5
2014-Dec-14 21:33N 35°23' E 139°40'0 0.1
2014-Dec-14 20:33N 35°23' E 139°40'0 0.0
2014-Dec-14 19:33N 35°23' E 139°40'0 0.1
2014-Dec-14 18:33N 35°23' E 139°40'0 0.0
2014-Dec-14 17:33N 35°23' E 139°40'0 0.1
2014-Dec-14 16:33N 35°23' E 139°40'0 0.0
2014-Dec-14 15:33N 35°23' E 139°40'0 0.0
2014-Dec-14 14:33N 35°23' E 139°40'0 0.0
2014-Dec-14 13:33N 35°23' E 139°40'0 0.0
2014-Dec-14 12:33N 35°23' E 139°40'0 0.0
2014-Dec-14 11:33N 35°23' E 139°40'0 0.1
2014-Dec-14 10:33N 35°23' E 139°40'0 0.0
2014-Dec-14 09:33N 35°23' E 139°40'0 0.0
2014-Dec-14 08:33N 35°23' E 139°40'0 0.0
2014-Dec-14 07:33N 35°23' E 139°40'0 0.0
2014-Dec-14 06:33N 35°23' E 139°40'0 0.0
2014-Dec-14 05:33N 35°23' E 139°40'0 0.0
2014-Dec-14 04:33N 35°23' E 139°40'0 0.0
2014-Dec-14 03:33N 35°23' E 139°40'0 0.0
2014-Dec-14 02:33N 35°23' E 139°40'0 0.0
2014-Dec-14 01:33N 35°23' E 139°40'0 0.0
2014-Dec-14 00:30N 35°23' E 139°40'0 0.1
2014-Dec-13 23:33N 35°23' E 139°40'0 0.1
2014-Dec-13 22:33N 35°23' E 139°40'0 0.0
2014-Dec-13 18:15N 35°23' E 139°40'0 0.3
2014-Dec-13 17:33N 35°23' E 139°40'0 0.2
2014-Dec-13 16:33N 35°23' E 139°40'0 0.1
2014-Dec-13 15:33N 35°23' E 139°40'0 0.0
2014-Dec-13 14:33N 35°23' E 139°40'0 0.0
2014-Dec-13 13:33N 35°23' E 139°40'0 0.0
2014-Dec-13 12:33N 35°23' E 139°40'0 0.0
2014-Dec-13 11:33N 35°23' E 139°40'0 0.1
2014-Dec-13 10:33N 35°24' E 139°40'0 0.3
2014-Dec-13 09:33N 35°23' E 139°40'9 8.8
2014-Dec-13 08:33N 35°16' E 139°46'1210.1
2014-Dec-13 07:25N 35°05' E 139°46'445 9.7
2014-Dec-11 09:31N 34°01' E 130°50'  

Dump ship's entire track history